sensor_id;sensor_type;location;lat;lon;timestamp;P1;durP1;ratioP1;P2;durP2;ratioP2
66830;SDS011;53739;44.224;22.528;2023-12-07T00:00:40;77.80;;;35.45;;
66830;SDS011;53739;44.224;22.528;2023-12-07T00:03:06;66.55;;;32.03;;
66830;SDS011;53739;44.224;22.528;2023-12-07T00:05:32;66.90;;;33.17;;
66830;SDS011;53739;44.224;22.528;2023-12-07T00:07:58;81.13;;;41.42;;
66830;SDS011;53739;44.224;22.528;2023-12-07T00:10:24;97.85;;;47.75;;
66830;SDS011;53739;44.224;22.528;2023-12-07T00:12:51;93.25;;;45.58;;
66830;SDS011;53739;44.224;22.528;2023-12-07T00:15:17;127.97;;;61.78;;
66830;SDS011;53739;44.224;22.528;2023-12-07T00:17:43;104.80;;;53.67;;
66830;SDS011;53739;44.224;22.528;2023-12-07T00:20:09;97.30;;;47.55;;
66830;SDS011;53739;44.224;22.528;2023-12-07T00:22:36;98.57;;;49.67;;
66830;SDS011;53739;44.224;22.528;2023-12-07T00:25:02;107.88;;;57.17;;
66830;SDS011;53739;44.224;22.528;2023-12-07T00:27:28;104.05;;;54.70;;
66830;SDS011;53739;44.224;22.528;2023-12-07T00:29:54;99.03;;;49.50;;
66830;SDS011;53739;44.224;22.528;2023-12-07T00:32:20;112.65;;;48.90;;
66830;SDS011;53739;44.224;22.528;2023-12-07T00:34:46;110.82;;;50.00;;
66830;SDS011;53739;44.224;22.528;2023-12-07T00:37:14;110.00;;;51.08;;
66830;SDS011;53739;44.224;22.528;2023-12-07T00:39:40;76.40;;;38.90;;
66830;SDS011;53739;44.224;22.528;2023-12-07T00:42:06;58.78;;;29.27;;
66830;SDS011;53739;44.224;22.528;2023-12-07T00:44:32;71.32;;;31.98;;
66830;SDS011;53739;44.224;22.528;2023-12-07T00:46:59;62.15;;;30.15;;
66830;SDS011;53739;44.224;22.528;2023-12-07T00:49:25;40.15;;;20.05;;
66830;SDS011;53739;44.224;22.528;2023-12-07T00:51:51;46.22;;;21.45;;
66830;SDS011;53739;44.224;22.528;2023-12-07T00:54:17;37.15;;;19.83;;
66830;SDS011;53739;44.224;22.528;2023-12-07T00:56:43;33.97;;;17.83;;
66830;SDS011;53739;44.224;22.528;2023-12-07T00:59:09;36.22;;;17.15;;
66830;SDS011;53739;44.224;22.528;2023-12-07T01:01:35;34.47;;;16.85;;
66830;SDS011;53739;44.224;22.528;2023-12-07T01:04:03;53.40;;;25.10;;
66830;SDS011;53739;44.224;22.528;2023-12-07T01:06:30;41.13;;;20.67;;
66830;SDS011;53739;44.224;22.528;2023-12-07T01:08:56;52.53;;;25.10;;
66830;SDS011;53739;44.224;22.528;2023-12-07T01:11:23;27.48;;;16.50;;
66830;SDS011;53739;44.224;22.528;2023-12-07T01:13:49;52.63;;;26.50;;
66830;SDS011;53739;44.224;22.528;2023-12-07T01:16:15;41.40;;;24.05;;
66830;SDS011;53739;44.224;22.528;2023-12-07T01:18:41;69.00;;;34.28;;
66830;SDS011;53739;44.224;22.528;2023-12-07T01:21:07;77.97;;;35.65;;
66830;SDS011;53739;44.224;22.528;2023-12-07T01:23:33;137.57;;;59.33;;
66830;SDS011;53739;44.224;22.528;2023-12-07T01:25:59;99.82;;;45.95;;
66830;SDS011;53739;44.224;22.528;2023-12-07T01:28:27;128.23;;;58.30;;
66830;SDS011;53739;44.224;22.528;2023-12-07T01:30:53;108.22;;;50.33;;
66830;SDS011;53739;44.224;22.528;2023-12-07T01:33:19;127.70;;;58.20;;
66830;SDS011;53739;44.224;22.528;2023-12-07T01:35:46;137.25;;;56.95;;
66830;SDS011;53739;44.224;22.528;2023-12-07T01:38:12;131.98;;;54.22;;
66830;SDS011;53739;44.224;22.528;2023-12-07T01:40:39;140.60;;;58.15;;
66830;SDS011;53739;44.224;22.528;2023-12-07T01:43:05;108.47;;;47.55;;
66830;SDS011;53739;44.224;22.528;2023-12-07T01:45:31;76.95;;;38.60;;
66830;SDS011;53739;44.224;22.528;2023-12-07T01:47:57;84.20;;;37.83;;
66830;SDS011;53739;44.224;22.528;2023-12-07T01:50:24;65.20;;;31.27;;
66830;SDS011;53739;44.224;22.528;2023-12-07T01:52:54;63.80;;;31.35;;
66830;SDS011;53739;44.224;22.528;2023-12-07T01:55:22;42.60;;;21.48;;
66830;SDS011;53739;44.224;22.528;2023-12-07T01:57:48;93.13;;;42.45;;
66830;SDS011;53739;44.224;22.528;2023-12-07T02:00:14;85.07;;;40.83;;
66830;SDS011;53739;44.224;22.528;2023-12-07T02:02:40;132.50;;;62.22;;
66830;SDS011;53739;44.224;22.528;2023-12-07T02:05:07;173.23;;;73.38;;
66830;SDS011;53739;44.224;22.528;2023-12-07T02:07:34;66.10;;;34.42;;
66830;SDS011;53739;44.224;22.528;2023-12-07T02:10:00;60.08;;;30.25;;
66830;SDS011;53739;44.224;22.528;2023-12-07T02:12:26;44.33;;;23.75;;
66830;SDS011;53739;44.224;22.528;2023-12-07T02:14:54;235.05;;;102.93;;
66830;SDS011;53739;44.224;22.528;2023-12-07T02:17:27;258.77;;;115.35;;
66830;SDS011;53739;44.224;22.528;2023-12-07T02:22:39;112.97;;;53.28;;
66830;SDS011;53739;44.224;22.528;2023-12-07T02:25:06;134.45;;;60.90;;
66830;SDS011;53739;44.224;22.528;2023-12-07T02:27:39;192.38;;;89.53;;
66830;SDS011;53739;44.224;22.528;2023-12-07T02:30:09;40.17;;;24.45;;
66830;SDS011;53739;44.224;22.528;2023-12-07T02:32:39;65.68;;;34.72;;
66830;SDS011;53739;44.224;22.528;2023-12-07T02:35:09;55.33;;;27.80;;
66830;SDS011;53739;44.224;22.528;2023-12-07T02:37:37;56.20;;;28.25;;
66830;SDS011;53739;44.224;22.528;2023-12-07T02:40:06;40.70;;;21.38;;
66830;SDS011;53739;44.224;22.528;2023-12-07T02:42:37;35.75;;;20.02;;
66830;SDS011;53739;44.224;22.528;2023-12-07T02:45:03;43.15;;;23.00;;
66830;SDS011;53739;44.224;22.528;2023-12-07T02:47:30;59.15;;;27.70;;
66830;SDS011;53739;44.224;22.528;2023-12-07T02:49:56;40.15;;;19.65;;
66830;SDS011;53739;44.224;22.528;2023-12-07T02:52:22;28.40;;;15.20;;
66830;SDS011;53739;44.224;22.528;2023-12-07T02:54:48;40.70;;;21.80;;
66830;SDS011;53739;44.224;22.528;2023-12-07T02:57:14;21.05;;;11.48;;
66830;SDS011;53739;44.224;22.528;2023-12-07T02:59:40;33.33;;;18.40;;
66830;SDS011;53739;44.224;22.528;2023-12-07T03:02:07;27.77;;;14.73;;
66830;SDS011;53739;44.224;22.528;2023-12-07T03:04:33;40.78;;;19.85;;
66830;SDS011;53739;44.224;22.528;2023-12-07T03:06:59;35.70;;;17.15;;
66830;SDS011;53739;44.224;22.528;2023-12-07T03:09:25;32.30;;;17.88;;
66830;SDS011;53739;44.224;22.528;2023-12-07T03:11:51;40.25;;;19.95;;
66830;SDS011;53739;44.224;22.528;2023-12-07T03:14:17;49.38;;;28.80;;
66830;SDS011;53739;44.224;22.528;2023-12-07T03:16:44;30.85;;;16.27;;
66830;SDS011;53739;44.224;22.528;2023-12-07T03:19:11;38.80;;;22.38;;
66830;SDS011;53739;44.224;22.528;2023-12-07T03:21:40;30.95;;;15.30;;
66830;SDS011;53739;44.224;22.528;2023-12-07T03:24:07;18.15;;;10.98;;
66830;SDS011;53739;44.224;22.528;2023-12-07T03:26:34;22.45;;;13.18;;
66830;SDS011;53739;44.224;22.528;2023-12-07T03:29:00;26.38;;;13.73;;
66830;SDS011;53739;44.224;22.528;2023-12-07T03:31:27;42.75;;;19.23;;
66830;SDS011;53739;44.224;22.528;2023-12-07T03:33:54;29.05;;;15.45;;
66830;SDS011;53739;44.224;22.528;2023-12-07T03:36:21;43.38;;;22.40;;
66830;SDS011;53739;44.224;22.528;2023-12-07T03:38:47;34.88;;;17.90;;
66830;SDS011;53739;44.224;22.528;2023-12-07T03:41:13;76.63;;;34.45;;
66830;SDS011;53739;44.224;22.528;2023-12-07T03:43:39;65.25;;;27.95;;
66830;SDS011;53739;44.224;22.528;2023-12-07T03:46:06;114.07;;;44.40;;
66830;SDS011;53739;44.224;22.528;2023-12-07T03:48:32;52.58;;;23.70;;
66830;SDS011;53739;44.224;22.528;2023-12-07T03:50:58;46.35;;;19.60;;
66830;SDS011;53739;44.224;22.528;2023-12-07T03:53:25;56.95;;;22.38;;
66830;SDS011;53739;44.224;22.528;2023-12-07T03:55:51;43.20;;;21.58;;
66830;SDS011;53739;44.224;22.528;2023-12-07T03:58:17;51.22;;;23.27;;
66830;SDS011;53739;44.224;22.528;2023-12-07T04:00:44;41.75;;;22.67;;
66830;SDS011;53739;44.224;22.528;2023-12-07T04:03:10;49.83;;;25.55;;
66830;SDS011;53739;44.224;22.528;2023-12-07T04:05:37;60.17;;;27.58;;
66830;SDS011;53739;44.224;22.528;2023-12-07T04:08:03;34.63;;;19.35;;
66830;SDS011;53739;44.224;22.528;2023-12-07T04:10:30;23.52;;;15.05;;
66830;SDS011;53739;44.224;22.528;2023-12-07T04:12:56;24.98;;;14.70;;
66830;SDS011;53739;44.224;22.528;2023-12-07T04:15:23;29.67;;;17.33;;
66830;SDS011;53739;44.224;22.528;2023-12-07T04:17:49;31.58;;;19.25;;
66830;SDS011;53739;44.224;22.528;2023-12-07T04:20:15;37.08;;;19.55;;
66830;SDS011;53739;44.224;22.528;2023-12-07T04:22:43;21.27;;;12.35;;
66830;SDS011;53739;44.224;22.528;2023-12-07T04:25:10;27.33;;;11.90;;
66830;SDS011;53739;44.224;22.528;2023-12-07T04:27:36;13.73;;;7.35;;
66830;SDS011;53739;44.224;22.528;2023-12-07T04:30:03;10.85;;;6.55;;
66830;SDS011;53739;44.224;22.528;2023-12-07T04:32:29;11.50;;;5.47;;
66830;SDS011;53739;44.224;22.528;2023-12-07T04:34:55;8.90;;;5.32;;
66830;SDS011;53739;44.224;22.528;2023-12-07T04:37:21;7.68;;;4.07;;
66830;SDS011;53739;44.224;22.528;2023-12-07T04:39:47;7.40;;;4.40;;
66830;SDS011;53739;44.224;22.528;2023-12-07T04:42:13;15.13;;;6.10;;
66830;SDS011;53739;44.224;22.528;2023-12-07T04:44:39;19.60;;;8.45;;
66830;SDS011;53739;44.224;22.528;2023-12-07T04:47:06;14.27;;;7.65;;
66830;SDS011;53739;44.224;22.528;2023-12-07T04:49:32;16.48;;;8.10;;
66830;SDS011;53739;44.224;22.528;2023-12-07T04:51:58;20.38;;;10.65;;
66830;SDS011;53739;44.224;22.528;2023-12-07T04:54:24;24.25;;;11.15;;
66830;SDS011;53739;44.224;22.528;2023-12-07T04:56:52;30.88;;;13.88;;
66830;SDS011;53739;44.224;22.528;2023-12-07T04:59:19;18.33;;;9.48;;
66830;SDS011;53739;44.224;22.528;2023-12-07T05:01:46;23.67;;;11.52;;
66830;SDS011;53739;44.224;22.528;2023-12-07T05:04:12;15.27;;;8.63;;
66830;SDS011;53739;44.224;22.528;2023-12-07T05:06:39;9.32;;;6.15;;
66830;SDS011;53739;44.224;22.528;2023-12-07T05:09:05;7.30;;;4.38;;
66830;SDS011;53739;44.224;22.528;2023-12-07T05:11:34;7.75;;;5.40;;
66830;SDS011;53739;44.224;22.528;2023-12-07T05:14:01;12.70;;;6.78;;
66830;SDS011;53739;44.224;22.528;2023-12-07T05:16:28;10.93;;;5.75;;
66830;SDS011;53739;44.224;22.528;2023-12-07T05:18:54;8.85;;;4.82;;
66830;SDS011;53739;44.224;22.528;2023-12-07T05:21:21;8.77;;;3.72;;
66830;SDS011;53739;44.224;22.528;2023-12-07T05:23:47;9.75;;;4.55;;
66830;SDS011;53739;44.224;22.528;2023-12-07T05:26:13;10.82;;;5.30;;
66830;SDS011;53739;44.224;22.528;2023-12-07T05:28:39;8.10;;;4.05;;
66830;SDS011;53739;44.224;22.528;2023-12-07T05:31:06;18.60;;;9.10;;
66830;SDS011;53739;44.224;22.528;2023-12-07T05:33:32;26.25;;;11.85;;
66830;SDS011;53739;44.224;22.528;2023-12-07T05:35:58;21.05;;;9.07;;
66830;SDS011;53739;44.224;22.528;2023-12-07T05:38:25;27.70;;;13.30;;
66830;SDS011;53739;44.224;22.528;2023-12-07T05:40:51;39.85;;;18.02;;
66830;SDS011;53739;44.224;22.528;2023-12-07T05:43:17;30.83;;;13.13;;
66830;SDS011;53739;44.224;22.528;2023-12-07T05:45:44;24.73;;;12.98;;
66830;SDS011;53739;44.224;22.528;2023-12-07T05:48:10;29.77;;;14.35;;
66830;SDS011;53739;44.224;22.528;2023-12-07T05:50:36;16.55;;;9.38;;
66830;SDS011;53739;44.224;22.528;2023-12-07T05:53:04;22.85;;;13.07;;
66830;SDS011;53739;44.224;22.528;2023-12-07T05:55:31;19.80;;;11.55;;
66830;SDS011;53739;44.224;22.528;2023-12-07T05:57:59;23.88;;;13.63;;
66830;SDS011;53739;44.224;22.528;2023-12-07T06:00:25;18.55;;;11.93;;
66830;SDS011;53739;44.224;22.528;2023-12-07T06:02:52;8.52;;;6.18;;
66830;SDS011;53739;44.224;22.528;2023-12-07T06:05:18;11.60;;;6.10;;
66830;SDS011;53739;44.224;22.528;2023-12-07T06:07:44;19.83;;;10.52;;
66830;SDS011;53739;44.224;22.528;2023-12-07T06:10:10;16.73;;;9.02;;
66830;SDS011;53739;44.224;22.528;2023-12-07T06:12:36;13.35;;;7.85;;
66830;SDS011;53739;44.224;22.528;2023-12-07T06:15:03;15.82;;;8.98;;
66830;SDS011;53739;44.224;22.528;2023-12-07T06:17:31;18.90;;;9.60;;
66830;SDS011;53739;44.224;22.528;2023-12-07T06:19:58;19.13;;;10.27;;
66830;SDS011;53739;44.224;22.528;2023-12-07T06:22:25;19.77;;;10.23;;
66830;SDS011;53739;44.224;22.528;2023-12-07T06:24:51;49.92;;;22.83;;
66830;SDS011;53739;44.224;22.528;2023-12-07T06:27:17;19.15;;;11.23;;
66830;SDS011;53739;44.224;22.528;2023-12-07T06:29:43;9.63;;;4.93;;
66830;SDS011;53739;44.224;22.528;2023-12-07T06:32:09;9.95;;;6.45;;
66830;SDS011;53739;44.224;22.528;2023-12-07T06:34:39;23.13;;;13.07;;
66830;SDS011;53739;44.224;22.528;2023-12-07T06:37:05;24.90;;;14.13;;
66830;SDS011;53739;44.224;22.528;2023-12-07T06:39:31;14.45;;;8.60;;
66830;SDS011;53739;44.224;22.528;2023-12-07T06:41:58;13.20;;;7.95;;
66830;SDS011;53739;44.224;22.528;2023-12-07T06:44:24;14.80;;;8.45;;
66830;SDS011;53739;44.224;22.528;2023-12-07T06:46:51;18.85;;;10.85;;
66830;SDS011;53739;44.224;22.528;2023-12-07T06:49:17;24.48;;;11.98;;
66830;SDS011;53739;44.224;22.528;2023-12-07T06:51:44;52.28;;;23.90;;
66830;SDS011;53739;44.224;22.528;2023-12-07T06:54:10;39.85;;;20.10;;
66830;SDS011;53739;44.224;22.528;2023-12-07T06:56:36;39.83;;;19.95;;
66830;SDS011;53739;44.224;22.528;2023-12-07T06:59:02;47.05;;;22.90;;
66830;SDS011;53739;44.224;22.528;2023-12-07T07:01:28;29.30;;;17.48;;
66830;SDS011;53739;44.224;22.528;2023-12-07T07:03:54;30.75;;;16.85;;
66830;SDS011;53739;44.224;22.528;2023-12-07T07:06:21;34.80;;;16.40;;
66830;SDS011;53739;44.224;22.528;2023-12-07T07:08:47;20.85;;;13.13;;
66830;SDS011;53739;44.224;22.528;2023-12-07T07:11:14;21.27;;;12.65;;
66830;SDS011;53739;44.224;22.528;2023-12-07T07:13:40;21.65;;;13.05;;
66830;SDS011;53739;44.224;22.528;2023-12-07T07:16:07;24.13;;;12.18;;
66830;SDS011;53739;44.224;22.528;2023-12-07T07:18:33;49.50;;;24.40;;
66830;SDS011;53739;44.224;22.528;2023-12-07T07:21:00;42.40;;;22.67;;
66830;SDS011;53739;44.224;22.528;2023-12-07T07:23:26;39.20;;;19.75;;
66830;SDS011;53739;44.224;22.528;2023-12-07T07:25:52;52.45;;;26.48;;
66830;SDS011;53739;44.224;22.528;2023-12-07T07:28:18;41.75;;;24.67;;
66830;SDS011;53739;44.224;22.528;2023-12-07T07:30:45;40.70;;;22.55;;
66830;SDS011;53739;44.224;22.528;2023-12-07T07:33:11;39.17;;;20.80;;
66830;SDS011;53739;44.224;22.528;2023-12-07T07:35:37;42.45;;;23.63;;
66830;SDS011;53739;44.224;22.528;2023-12-07T07:38:03;46.53;;;26.10;;
66830;SDS011;53739;44.224;22.528;2023-12-07T07:40:29;59.72;;;32.80;;
66830;SDS011;53739;44.224;22.528;2023-12-07T07:42:56;52.95;;;29.67;;
66830;SDS011;53739;44.224;22.528;2023-12-07T07:45:22;61.75;;;32.25;;
66830;SDS011;53739;44.224;22.528;2023-12-07T07:47:48;55.38;;;33.70;;
66830;SDS011;53739;44.224;22.528;2023-12-07T07:50:14;55.30;;;34.10;;
66830;SDS011;53739;44.224;22.528;2023-12-07T07:52:41;50.53;;;33.25;;
66830;SDS011;53739;44.224;22.528;2023-12-07T07:55:07;73.63;;;47.67;;
66830;SDS011;53739;44.224;22.528;2023-12-07T07:57:34;35.70;;;19.73;;
66830;SDS011;53739;44.224;22.528;2023-12-07T08:00:00;46.17;;;26.80;;
66830;SDS011;53739;44.224;22.528;2023-12-07T08:02:26;155.63;;;96.65;;
66830;SDS011;53739;44.224;22.528;2023-12-07T08:04:52;95.30;;;60.90;;
66830;SDS011;53739;44.224;22.528;2023-12-07T08:07:18;90.32;;;53.55;;
66830;SDS011;53739;44.224;22.528;2023-12-07T08:09:44;54.70;;;33.83;;
66830;SDS011;53739;44.224;22.528;2023-12-07T08:12:11;65.43;;;41.58;;
66830;SDS011;53739;44.224;22.528;2023-12-07T08:14:37;57.63;;;41.17;;
66830;SDS011;53739;44.224;22.528;2023-12-07T08:17:03;39.10;;;26.50;;
66830;SDS011;53739;44.224;22.528;2023-12-07T08:19:29;33.45;;;22.95;;
66830;SDS011;53739;44.224;22.528;2023-12-07T08:21:55;27.02;;;17.63;;
66830;SDS011;53739;44.224;22.528;2023-12-07T08:24:22;23.65;;;13.35;;
66830;SDS011;53739;44.224;22.528;2023-12-07T08:26:50;25.25;;;13.20;;
66830;SDS011;53739;44.224;22.528;2023-12-07T08:29:16;27.50;;;13.35;;
66830;SDS011;53739;44.224;22.528;2023-12-07T08:31:42;20.15;;;10.80;;
66830;SDS011;53739;44.224;22.528;2023-12-07T08:34:09;18.85;;;10.98;;
66830;SDS011;53739;44.224;22.528;2023-12-07T08:36:35;24.58;;;13.18;;
66830;SDS011;53739;44.224;22.528;2023-12-07T08:39:01;34.03;;;18.95;;
66830;SDS011;53739;44.224;22.528;2023-12-07T08:41:27;24.55;;;12.48;;
66830;SDS011;53739;44.224;22.528;2023-12-07T08:43:53;15.85;;;9.85;;
66830;SDS011;53739;44.224;22.528;2023-12-07T08:46:19;20.33;;;10.57;;
66830;SDS011;53739;44.224;22.528;2023-12-07T08:48:45;15.90;;;8.65;;
66830;SDS011;53739;44.224;22.528;2023-12-07T08:51:12;15.57;;;9.55;;
66830;SDS011;53739;44.224;22.528;2023-12-07T08:53:38;24.77;;;10.68;;
66830;SDS011;53739;44.224;22.528;2023-12-07T08:56:04;30.10;;;11.15;;
66830;SDS011;53739;44.224;22.528;2023-12-07T08:58:30;30.55;;;13.48;;
66830;SDS011;53739;44.224;22.528;2023-12-07T09:00:56;41.60;;;18.17;;
66830;SDS011;53739;44.224;22.528;2023-12-07T09:03:23;40.08;;;16.75;;
66830;SDS011;53739;44.224;22.528;2023-12-07T09:05:56;31.90;;;13.30;;
66830;SDS011;53739;44.224;22.528;2023-12-07T09:08:23;27.92;;;12.80;;
66830;SDS011;53739;44.224;22.528;2023-12-07T09:10:49;30.45;;;12.93;;
66830;SDS011;53739;44.224;22.528;2023-12-07T09:13:16;24.08;;;12.88;;
66830;SDS011;53739;44.224;22.528;2023-12-07T09:15:42;34.95;;;19.38;;
66830;SDS011;53739;44.224;22.528;2023-12-07T09:18:08;19.67;;;11.55;;
66830;SDS011;53739;44.224;22.528;2023-12-07T09:20:36;23.02;;;12.48;;
66830;SDS011;53739;44.224;22.528;2023-12-07T09:23:02;19.25;;;10.55;;
66830;SDS011;53739;44.224;22.528;2023-12-07T09:25:28;29.67;;;13.07;;
66830;SDS011;53739;44.224;22.528;2023-12-07T09:27:55;22.63;;;12.75;;
66830;SDS011;53739;44.224;22.528;2023-12-07T09:30:22;27.92;;;13.93;;
66830;SDS011;53739;44.224;22.528;2023-12-07T09:32:48;28.60;;;13.23;;
66830;SDS011;53739;44.224;22.528;2023-12-07T09:35:14;37.95;;;18.80;;
66830;SDS011;53739;44.224;22.528;2023-12-07T09:37:44;51.95;;;25.23;;
66830;SDS011;53739;44.224;22.528;2023-12-07T09:40:19;25.75;;;13.13;;
66830;SDS011;53739;44.224;22.528;2023-12-07T09:42:47;48.50;;;23.35;;
66830;SDS011;53739;44.224;22.528;2023-12-07T09:45:14;53.03;;;25.73;;
66830;SDS011;53739;44.224;22.528;2023-12-07T09:47:42;41.13;;;21.88;;
66830;SDS011;53739;44.224;22.528;2023-12-07T09:50:08;51.17;;;27.60;;
66830;SDS011;53739;44.224;22.528;2023-12-07T09:52:35;54.53;;;27.50;;
66830;SDS011;53739;44.224;22.528;2023-12-07T09:55:02;67.80;;;31.20;;
66830;SDS011;53739;44.224;22.528;2023-12-07T09:57:28;56.53;;;27.38;;
66830;SDS011;53739;44.224;22.528;2023-12-07T09:59:55;40.42;;;21.30;;
66830;SDS011;53739;44.224;22.528;2023-12-07T10:02:21;46.70;;;24.38;;
66830;SDS011;53739;44.224;22.528;2023-12-07T10:04:48;44.40;;;22.77;;
66830;SDS011;53739;44.224;22.528;2023-12-07T10:07:15;54.53;;;26.42;;
66830;SDS011;53739;44.224;22.528;2023-12-07T10:09:41;36.00;;;18.67;;
66830;SDS011;53739;44.224;22.528;2023-12-07T10:12:07;39.45;;;21.33;;
66830;SDS011;53739;44.224;22.528;2023-12-07T10:14:33;34.20;;;19.00;;
66830;SDS011;53739;44.224;22.528;2023-12-07T10:17:00;40.75;;;19.50;;
66830;SDS011;53739;44.224;22.528;2023-12-07T10:19:26;45.22;;;20.38;;
66830;SDS011;53739;44.224;22.528;2023-12-07T10:21:53;55.67;;;24.95;;
66830;SDS011;53739;44.224;22.528;2023-12-07T10:24:19;61.47;;;30.23;;
66830;SDS011;53739;44.224;22.528;2023-12-07T10:26:46;87.20;;;43.22;;
66830;SDS011;53739;44.224;22.528;2023-12-07T10:29:12;71.03;;;37.13;;
66830;SDS011;53739;44.224;22.528;2023-12-07T10:31:39;114.68;;;56.53;;
66830;SDS011;53739;44.224;22.528;2023-12-07T10:34:05;59.42;;;33.33;;
66830;SDS011;53739;44.224;22.528;2023-12-07T10:36:32;48.65;;;25.13;;
66830;SDS011;53739;44.224;22.528;2023-12-07T10:38:58;55.92;;;28.67;;
66830;SDS011;53739;44.224;22.528;2023-12-07T10:41:24;80.00;;;43.95;;
66830;SDS011;53739;44.224;22.528;2023-12-07T10:43:52;66.80;;;33.10;;
66830;SDS011;53739;44.224;22.528;2023-12-07T10:46:22;36.80;;;18.33;;
66830;SDS011;53739;44.224;22.528;2023-12-07T10:48:48;66.88;;;32.63;;
66830;SDS011;53739;44.224;22.528;2023-12-07T10:51:19;114.03;;;49.78;;
66830;SDS011;53739;44.224;22.528;2023-12-07T10:53:47;73.25;;;33.05;;
66830;SDS011;53739;44.224;22.528;2023-12-07T10:56:16;151.07;;;72.15;;
66830;SDS011;53739;44.224;22.528;2023-12-07T10:58:43;130.23;;;67.25;;
66830;SDS011;53739;44.224;22.528;2023-12-07T11:01:09;101.65;;;49.20;;
66830;SDS011;53739;44.224;22.528;2023-12-07T11:03:37;66.43;;;32.20;;
66830;SDS011;53739;44.224;22.528;2023-12-07T11:06:04;62.55;;;29.40;;
66830;SDS011;53739;44.224;22.528;2023-12-07T11:08:42;44.17;;;23.90;;
66830;SDS011;53739;44.224;22.528;2023-12-07T11:11:15;49.20;;;23.55;;
66830;SDS011;53739;44.224;22.528;2023-12-07T11:13:47;127.65;;;60.95;;
66830;SDS011;53739;44.224;22.528;2023-12-07T11:16:15;69.75;;;34.17;;
66830;SDS011;53739;44.224;22.528;2023-12-07T11:18:41;116.97;;;52.97;;
66830;SDS011;53739;44.224;22.528;2023-12-07T11:21:07;110.60;;;53.15;;
66830;SDS011;53739;44.224;22.528;2023-12-07T11:23:33;110.55;;;55.92;;
66830;SDS011;53739;44.224;22.528;2023-12-07T11:26:00;71.63;;;35.13;;
66830;SDS011;53739;44.224;22.528;2023-12-07T11:28:36;63.50;;;33.00;;
66830;SDS011;53739;44.224;22.528;2023-12-07T11:31:02;52.67;;;26.90;;
66830;SDS011;53739;44.224;22.528;2023-12-07T11:33:29;51.35;;;23.50;;
66830;SDS011;53739;44.224;22.528;2023-12-07T11:38:28;56.10;;;26.73;;
66830;SDS011;53739;44.224;22.528;2023-12-07T11:40:54;46.17;;;21.10;;
66830;SDS011;53739;44.224;22.528;2023-12-07T11:43:36;38.88;;;20.17;;
66830;SDS011;53739;44.224;22.528;2023-12-07T11:46:09;39.92;;;20.20;;
66830;SDS011;53739;44.224;22.528;2023-12-07T11:48:35;40.45;;;19.30;;
66830;SDS011;53739;44.224;22.528;2023-12-07T11:51:08;40.90;;;19.73;;
66830;SDS011;53739;44.224;22.528;2023-12-07T11:53:36;42.83;;;20.45;;
66830;SDS011;53739;44.224;22.528;2023-12-07T11:58:29;41.28;;;22.67;;
66830;SDS011;53739;44.224;22.528;2023-12-07T12:00:56;49.97;;;26.02;;
66830;SDS011;53739;44.224;22.528;2023-12-07T12:03:23;85.53;;;41.05;;
66830;SDS011;53739;44.224;22.528;2023-12-07T12:05:49;72.57;;;38.83;;
66830;SDS011;53739;44.224;22.528;2023-12-07T12:08:15;70.28;;;36.05;;
66830;SDS011;53739;44.224;22.528;2023-12-07T12:10:43;80.82;;;39.33;;
66830;SDS011;53739;44.224;22.528;2023-12-07T12:13:09;57.92;;;30.27;;
66830;SDS011;53739;44.224;22.528;2023-12-07T12:15:35;77.53;;;37.38;;
66830;SDS011;53739;44.224;22.528;2023-12-07T12:18:01;137.55;;;59.05;;
66830;SDS011;53739;44.224;22.528;2023-12-07T12:20:28;93.15;;;44.33;;
66830;SDS011;53739;44.224;22.528;2023-12-07T12:22:54;78.35;;;37.15;;
66830;SDS011;53739;44.224;22.528;2023-12-07T12:25:24;62.38;;;34.08;;
66830;SDS011;53739;44.224;22.528;2023-12-07T12:27:58;63.83;;;32.20;;
66830;SDS011;53739;44.224;22.528;2023-12-07T12:30:26;71.60;;;35.28;;
66830;SDS011;53739;44.224;22.528;2023-12-07T12:32:54;72.10;;;39.03;;
66830;SDS011;53739;44.224;22.528;2023-12-07T12:35:20;64.55;;;35.33;;
66830;SDS011;53739;44.224;22.528;2023-12-07T12:37:46;64.15;;;32.17;;
66830;SDS011;53739;44.224;22.528;2023-12-07T12:40:16;78.50;;;40.75;;
66830;SDS011;53739;44.224;22.528;2023-12-07T12:42:43;61.55;;;32.95;;
66830;SDS011;53739;44.224;22.528;2023-12-07T12:45:10;82.20;;;40.85;;
66830;SDS011;53739;44.224;22.528;2023-12-07T12:47:37;75.55;;;36.78;;
66830;SDS011;53739;44.224;22.528;2023-12-07T12:50:05;72.65;;;39.40;;
66830;SDS011;53739;44.224;22.528;2023-12-07T12:52:31;64.60;;;34.63;;
66830;SDS011;53739;44.224;22.528;2023-12-07T12:54:58;53.38;;;27.48;;
66830;SDS011;53739;44.224;22.528;2023-12-07T12:57:24;55.83;;;26.65;;
66830;SDS011;53739;44.224;22.528;2023-12-07T12:59:50;59.22;;;28.17;;
66830;SDS011;53739;44.224;22.528;2023-12-07T13:02:17;67.45;;;31.58;;
66830;SDS011;53739;44.224;22.528;2023-12-07T13:04:43;62.15;;;31.48;;
66830;SDS011;53739;44.224;22.528;2023-12-07T13:07:12;63.58;;;29.83;;
66830;SDS011;53739;44.224;22.528;2023-12-07T13:09:39;55.17;;;29.08;;
66830;SDS011;53739;44.224;22.528;2023-12-07T13:12:05;69.45;;;33.45;;
66830;SDS011;53739;44.224;22.528;2023-12-07T13:14:32;52.85;;;27.98;;
66830;SDS011;53739;44.224;22.528;2023-12-07T13:17:05;51.03;;;27.88;;
66830;SDS011;53739;44.224;22.528;2023-12-07T13:19:34;56.00;;;31.33;;
66830;SDS011;53739;44.224;22.528;2023-12-07T13:22:01;59.35;;;31.77;;
66830;SDS011;53739;44.224;22.528;2023-12-07T13:24:28;61.40;;;31.58;;
66830;SDS011;53739;44.224;22.528;2023-12-07T13:26:54;69.50;;;33.20;;
66830;SDS011;53739;44.224;22.528;2023-12-07T13:29:24;83.38;;;36.90;;
66830;SDS011;53739;44.224;22.528;2023-12-07T13:31:50;66.07;;;31.45;;
66830;SDS011;53739;44.224;22.528;2023-12-07T13:34:17;92.40;;;45.47;;
66830;SDS011;53739;44.224;22.528;2023-12-07T13:36:43;92.43;;;47.45;;
66830;SDS011;53739;44.224;22.528;2023-12-07T13:39:09;97.63;;;48.65;;
66830;SDS011;53739;44.224;22.528;2023-12-07T13:41:38;110.30;;;54.30;;
66830;SDS011;53739;44.224;22.528;2023-12-07T13:44:04;177.00;;;85.00;;
66830;SDS011;53739;44.224;22.528;2023-12-07T13:46:30;144.20;;;72.22;;
66830;SDS011;53739;44.224;22.528;2023-12-07T13:48:58;115.68;;;56.97;;
66830;SDS011;53739;44.224;22.528;2023-12-07T13:51:24;114.22;;;57.83;;
66830;SDS011;53739;44.224;22.528;2023-12-07T13:53:50;115.38;;;61.58;;
66830;SDS011;53739;44.224;22.528;2023-12-07T13:56:20;122.72;;;67.93;;
66830;SDS011;53739;44.224;22.528;2023-12-07T13:58:48;131.10;;;68.38;;
66830;SDS011;53739;44.224;22.528;2023-12-07T14:01:15;147.52;;;72.70;;
66830;SDS011;53739;44.224;22.528;2023-12-07T14:03:41;144.23;;;71.00;;
66830;SDS011;53739;44.224;22.528;2023-12-07T14:06:08;128.63;;;63.58;;
66830;SDS011;53739;44.224;22.528;2023-12-07T14:08:34;100.30;;;51.92;;
66830;SDS011;53739;44.224;22.528;2023-12-07T14:11:00;57.03;;;32.10;;
66830;SDS011;53739;44.224;22.528;2023-12-07T14:13:27;45.63;;;24.65;;